Summersville, Illinois
Current Conditions -  °F | °C
As of 9:55 AM on Tuesday 21 Oct 2014 (Local Time) from KMVN Reporting Station
Clear Clear  
Wind Chill: 55°   Ceiling: Unl
Heat Index: 55°   Visibility: 10mi
Dew Point: 46°   Wind: 8mph
Humidity: 72%   Direction: 50°NE
Pressure: 30.12"   Gusts: NA
Location:  38.3147°N, 88.9065°W
Report Text: KMVN 211455Z AUTO 05007KT 10SM CLR 13/08 A3012 RMK AO1 52020
Loading
Personal Weather Stations






























Interactive Weather Map
Tropical Storm Tracking
New forecast layout! Learn more

10-Day Weather Forecast

Advertisements
Track Severe Weather on mobile